Current Weather



TAF Data Links

METAR Data Links

Latest METAR/TAF Data


Available data for KAUS from the past 2 hours
AUSTIN, TX
Metar
KAUS 171553Z 12004KT 10SM CLR 18/07 A3031 RMK AO2 SLP264 T01780072

15:53 UTC

Wind: 120° 4kt

Visibility: 10 SM

Sky:

Temp: 18 deg C / 64.4 deg F

Dewpoint: 7 deg C / 44.6 deg F

Pressure: 30.31 inHg

TAF
KAUS 171120Z 1712/1818 36003KT P6SM SKC FM171700 06006KT P6SM SKC FM172300 VRB03KT P6SM SKC


Available data for KEDC from the past 2 hours
AUSTIN EXEC, TX
Metar
KEDC 171555Z AUTO 00000KT 10SM CLR 18/07 A3032 RMK AO2

15:55 UTC

Wind: 0° 0kt

Visibility: 10 SM

Sky:

Temp: 18 deg C / 64.4 deg F

Dewpoint: 7 deg C / 44.6 deg F

Pressure: 30.32 inHg



Available data for KRYW from the past 2 hours
LAGO VISTA, TX
Metar
KRYW 171555Z AUTO 13003KT 10SM CLR 18/07 A3032 RMK AO2 T01810067

15:55 UTC

Wind: 130° 3kt

Visibility: 10 SM

Sky:

Temp: 18 deg C / 64.4 deg F

Dewpoint: 7 deg C / 44.6 deg F

Pressure: 30.32 inHg